createdAt,value
2023-05-18T00:00:37.314Z,13.46
2023-05-18T00:02:41.780Z,13.44
2023-05-18T00:04:46.462Z,13.42
2023-05-18T00:06:57.368Z,13.42
2023-05-18T00:09:02.253Z,13.41
2023-05-18T00:11:07.693Z,13.41
2023-05-18T00:13:12.201Z,13.42
2023-05-18T00:15:16.543Z,13.42
2023-05-18T00:17:22.839Z,13.41
2023-05-18T00:19:27.129Z,13.40
2023-05-18T00:21:33.788Z,13.39
2023-05-18T00:23:39.857Z,13.40
2023-05-18T00:25:43.914Z,13.40
2023-05-18T00:27:49.925Z,13.40
2023-05-18T00:29:56.548Z,13.37
2023-05-18T00:32:01.192Z,13.36
2023-05-18T00:34:07.448Z,13.34
2023-05-18T00:36:12.465Z,13.33
2023-05-18T00:38:16.786Z,13.29
2023-05-18T00:40:21.556Z,13.27
2023-05-18T00:42:26.980Z,13.25
2023-05-18T00:44:31.783Z,13.25
2023-05-18T00:46:35.856Z,13.20
2023-05-18T00:48:40.396Z,13.20
2023-05-18T00:50:46.285Z,13.19
2023-05-18T00:52:51.916Z,13.13
2023-05-18T00:54:58.727Z,13.09
2023-05-18T00:57:03.831Z,13.07
2023-05-18T00:59:09.557Z,13.02
2023-05-18T01:01:14.440Z,12.99
2023-05-18T01:03:21.632Z,12.93
2023-05-18T01:05:25.976Z,12.90
2023-05-18T01:07:34.009Z,12.88
2023-05-18T01:09:38.849Z,12.85
2023-05-18T01:11:51.334Z,12.83
2023-05-18T01:14:04.359Z,12.83
2023-05-18T01:16:14.502Z,12.82
2023-05-18T01:18:25.374Z,12.80
2023-05-18T01:20:38.290Z,12.78
2023-05-18T01:23:10.437Z,12.77
2023-05-18T01:25:24.084Z,12.76
2023-05-18T01:27:29.984Z,12.74
2023-05-18T01:29:34.867Z,12.72
2023-05-18T01:31:40.365Z,12.69
2023-05-18T01:33:45.250Z,12.67
2023-05-18T01:35:49.931Z,12.67
2023-05-18T01:37:55.800Z,12.67
2023-05-18T01:39:59.942Z,12.65
2023-05-18T01:42:09.248Z,12.63
2023-05-18T01:44:20.851Z,12.63
2023-05-18T01:46:34.405Z,12.61
2023-05-18T01:48:41.166Z,12.61
2023-05-18T01:50:49.918Z,12.60
2023-05-18T01:52:58.730Z,12.60
2023-05-18T01:55:05.970Z,12.60
2023-05-18T01:57:12.516Z,12.59
2023-05-18T01:59:19.874Z,12.59
2023-05-18T02:01:25.198Z,12.58
2023-05-18T02:03:30.144Z,12.59
2023-05-18T02:05:35.117Z,12.59
2023-05-18T02:07:39.394Z,12.57
2023-05-18T02:09:44.602Z,12.53
2023-05-18T02:11:48.966Z,12.53
2023-05-18T02:13:53.234Z,12.52
2023-05-18T02:15:59.688Z,12.52
2023-05-18T02:18:04.963Z,12.51
2023-05-18T02:20:11.349Z,12.49
2023-05-18T02:22:15.892Z,12.46
2023-05-18T02:24:20.196Z,12.44
2023-05-18T02:26:24.861Z,12.43
2023-05-18T02:28:30.455Z,12.43
2023-05-18T02:30:35.296Z,12.43
2023-05-18T02:32:43.364Z,12.43
2023-05-18T02:34:50.664Z,12.42
2023-05-18T02:36:58.287Z,12.41
2023-05-18T02:39:03.393Z,12.41
2023-05-18T02:41:08.388Z,12.41
2023-05-18T02:43:13.050Z,12.41
2023-05-18T02:45:17.457Z,12.42
2023-05-18T02:47:22.742Z,12.40
2023-05-18T02:49:29.119Z,12.40
2023-05-18T02:51:33.757Z,12.39
2023-05-18T02:53:39.018Z,12.39
2023-05-18T02:55:49.506Z,12.41
2023-05-18T02:57:59.117Z,12.39
2023-05-18T03:00:24.242Z,12.40
2023-05-18T03:02:29.133Z,12.40
2023-05-18T03:04:34.806Z,12.42
2023-05-18T03:06:39.392Z,12.40
2023-05-18T03:08:43.916Z,12.38
2023-05-18T03:10:50.615Z,12.36
2023-05-18T03:12:55.537Z,12.36
2023-05-18T03:15:00.072Z,12.36
2023-05-18T03:17:06.348Z,12.35
2023-05-18T03:19:14.542Z,12.33
2023-05-18T03:21:20.659Z,12.29
2023-05-18T03:23:27.308Z,12.27
2023-05-18T03:25:33.330Z,12.25
2023-05-18T03:27:39.112Z,12.25
2023-05-18T03:29:43.797Z,12.22
2023-05-18T03:31:48.593Z,12.20
2023-05-18T03:33:53.330Z,12.19
2023-05-18T03:35:58.153Z,12.19
2023-05-18T03:38:04.442Z,12.21
2023-05-18T03:40:14.337Z,12.21
2023-05-18T03:42:19.718Z,12.23
2023-05-18T03:44:24.997Z,12.25
2023-05-18T03:46:29.579Z,12.25
2023-05-18T03:48:34.570Z,12.23
2023-05-18T03:50:38.955Z,12.22
2023-05-18T03:52:45.730Z,12.22
2023-05-18T03:54:52.008Z,12.22
2023-05-18T03:56:56.658Z,12.19
2023-05-18T03:59:00.788Z,12.19
2023-05-18T04:01:06.343Z,12.18
2023-05-18T04:03:13.159Z,12.17
2023-05-18T04:05:18.140Z,12.17
2023-05-18T04:07:24.515Z,12.16
2023-05-18T04:09:30.969Z,12.15
2023-05-18T04:11:36.842Z,12.15
2023-05-18T04:13:42.405Z,12.14
2023-05-18T04:15:47.845Z,12.13
2023-05-18T04:17:54.171Z,12.13
2023-05-18T04:19:59.061Z,12.14
2023-05-18T04:22:05.263Z,12.12
2023-05-18T04:24:14.777Z,12.12
2023-05-18T04:26:20.294Z,12.13
2023-05-18T04:28:25.838Z,12.12
2023-05-18T04:30:30.436Z,12.12
2023-05-18T04:32:36.378Z,12.13
2023-05-18T04:34:41.129Z,12.14
2023-05-18T04:36:45.297Z,12.14
2023-05-18T04:38:51.069Z,12.16
2023-05-18T04:40:57.212Z,12.16
2023-05-18T04:43:00.962Z,12.15
2023-05-18T04:45:13.058Z,12.14
2023-05-18T04:47:16.853Z,12.16
2023-05-18T04:49:22.471Z,12.16
2023-05-18T04:51:26.392Z,12.15
2023-05-18T04:53:29.895Z,12.15
2023-05-18T04:55:33.862Z,12.15
2023-05-18T04:57:45.167Z,12.15
2023-05-18T04:59:49.554Z,12.15
2023-05-18T05:01:54.850Z,12.15
2023-05-18T05:03:59.878Z,12.15
2023-05-18T05:06:03.547Z,12.16
2023-05-18T05:08:07.427Z,12.16
2023-05-18T05:10:11.564Z,12.17
2023-05-18T05:12:15.126Z,12.13
2023-05-18T05:14:18.681Z,12.13
2023-05-18T05:16:22.302Z,12.12
2023-05-18T05:18:27.924Z,12.13
2023-05-18T05:20:31.179Z,12.13
2023-05-18T05:22:34.721Z,12.13
2023-05-18T05:24:39.772Z,12.14
2023-05-18T05:26:43.301Z,12.13
2023-05-18T05:28:47.046Z,12.15
2023-05-18T05:30:50.669Z,12.16
2023-05-18T05:32:54.606Z,12.20
2023-05-18T05:34:59.748Z,12.24
2023-05-18T05:37:03.488Z,12.28
2023-05-18T05:39:07.200Z,12.32
2023-05-18T05:41:10.947Z,12.37
2023-05-18T05:43:15.549Z,12.39
2023-05-18T05:45:19.669Z,12.43
2023-05-18T05:47:26.997Z,12.48
2023-05-18T05:49:30.796Z,12.51
2023-05-18T05:51:36.291Z,12.56
2023-05-18T05:53:39.810Z,12.59
2023-05-18T05:55:43.556Z,12.61
2023-05-18T05:57:49.939Z,12.66
2023-05-18T05:59:53.910Z,12.72
2023-05-18T06:01:57.425Z,12.76
2023-05-18T06:04:01.314Z,12.80
2023-05-18T06:06:06.241Z,12.86
2023-05-18T06:08:11.273Z,12.92
2023-05-18T06:10:14.896Z,13.04
2023-05-18T06:12:18.662Z,13.16
2023-05-18T06:14:22.541Z,13.33
2023-05-18T06:16:26.636Z,13.45
2023-05-18T06:18:30.511Z,13.50
2023-05-18T06:20:38.288Z,13.56
2023-05-18T06:22:44.006Z,13.65
2023-05-18T06:25:00.981Z,13.75
2023-05-18T06:27:26.427Z,13.86
2023-05-18T06:29:54.430Z,13.85
2023-05-18T06:32:14.782Z,13.81
2023-05-18T06:34:20.395Z,13.78
2023-05-18T06:36:24.749Z,13.74
2023-05-18T06:38:28.935Z,13.68
2023-05-18T06:40:34.061Z,13.61
2023-05-18T06:42:38.083Z,13.55
2023-05-18T06:45:03.406Z,13.52
2023-05-18T06:47:34.439Z,13.52
2023-05-18T06:49:38.643Z,13.49
2023-05-18T06:51:44.676Z,13.46
2023-05-18T06:53:48.579Z,13.48
2023-05-18T06:55:54.273Z,13.47
2023-05-18T06:57:58.500Z,13.50
2023-05-18T07:00:02.422Z,13.51
2023-05-18T07:02:08.744Z,13.53
2023-05-18T07:04:12.904Z,13.56
2023-05-18T07:06:16.512Z,13.58
2023-05-18T07:08:20.431Z,13.61
2023-05-18T07:10:24.518Z,13.62
2023-05-18T07:12:30.023Z,13.65
2023-05-18T07:14:34.902Z,13.68
2023-05-18T07:16:39.615Z,13.71
2023-05-18T07:18:43.794Z,13.73
2023-05-18T07:20:47.850Z,13.74
2023-05-18T07:22:51.681Z,13.76
2023-05-18T07:24:55.263Z,13.80
2023-05-18T07:27:00.780Z,13.81
2023-05-18T07:29:07.438Z,13.83
2023-05-18T07:31:10.873Z,13.84
2023-05-18T07:33:16.836Z,13.87
2023-05-18T07:35:24.714Z,13.90
2023-05-18T07:37:31.375Z,13.95
2023-05-18T07:39:36.312Z,13.99
2023-05-18T07:41:42.684Z,14.02
2023-05-18T07:43:47.026Z,13.99
2023-05-18T07:45:54.131Z,13.97
2023-05-18T07:48:01.510Z,13.97
2023-05-18T07:50:08.953Z,14.01
2023-05-18T07:52:13.161Z,14.01
2023-05-18T07:54:19.828Z,14.02
2023-05-18T07:56:24.398Z,14.01
2023-05-18T07:58:28.087Z,14.00
2023-05-18T08:00:32.546Z,14.04
2023-05-18T08:02:40.111Z,14.06
2023-05-18T08:04:44.486Z,14.10
2023-05-18T08:06:48.536Z,14.09
2023-05-18T08:08:53.966Z,14.12
2023-05-18T08:10:58.924Z,14.15
2023-05-18T08:13:04.345Z,14.17
2023-05-18T08:15:10.334Z,14.21
2023-05-18T08:17:15.365Z,14.20
2023-05-18T08:19:21.442Z,14.18
2023-05-18T08:21:29.080Z,14.21
2023-05-18T08:23:33.658Z,14.21
2023-05-18T08:25:38.367Z,14.26
2023-05-18T08:27:43.848Z,14.30
2023-05-18T08:29:47.723Z,14.37
2023-05-18T08:31:53.616Z,14.40
2023-05-18T08:33:59.185Z,14.46
2023-05-18T08:36:05.613Z,14.53
2023-05-18T08:38:12.296Z,14.64
2023-05-18T08:40:16.886Z,14.74
2023-05-18T08:42:27.728Z,14.87
2023-05-18T08:44:42.275Z,15.05
2023-05-18T08:46:53.731Z,15.22
2023-05-18T08:49:00.804Z,15.44
2023-05-18T08:51:10.416Z,15.68
2023-05-18T08:53:15.683Z,15.90
2023-05-18T08:55:21.771Z,16.09
2023-05-18T08:57:26.847Z,16.27
2023-05-18T08:59:35.262Z,16.44
2023-05-18T09:01:41.104Z,16.62
2023-05-18T09:03:46.550Z,16.67
2023-05-18T09:05:52.434Z,16.67
2023-05-18T09:07:59.308Z,16.66
2023-05-18T09:10:07.217Z,16.66
2023-05-18T09:12:15.411Z,16.60
2023-05-18T09:14:19.740Z,16.50
2023-05-18T09:16:24.908Z,16.42
2023-05-18T09:18:29.905Z,16.35
2023-05-18T09:20:35.218Z,16.28
2023-05-18T09:22:40.873Z,16.28
2023-05-18T09:24:48.736Z,16.26
2023-05-18T09:26:54.637Z,16.31
2023-05-18T09:29:01.879Z,16.39
2023-05-18T09:31:09.754Z,16.44
2023-05-18T09:33:19.637Z,16.54
2023-05-18T09:35:27.310Z,16.62
2023-05-18T09:37:31.965Z,16.67
2023-05-18T09:39:36.259Z,16.75
2023-05-18T09:41:43.956Z,16.87
2023-05-18T09:43:51.012Z,17.07
2023-05-18T09:45:55.872Z,17.24
2023-05-18T09:48:00.585Z,17.38
2023-05-18T09:50:06.005Z,17.38
2023-05-18T09:52:12.464Z,17.38
2023-05-18T09:54:21.048Z,17.31
2023-05-18T09:56:29.302Z,17.14
2023-05-18T09:58:37.962Z,16.99
2023-05-18T10:00:45.492Z,16.83
2023-05-18T10:02:53.283Z,16.72
2023-05-18T10:04:58.176Z,16.60
2023-05-18T10:07:03.821Z,16.48
2023-05-18T10:09:17.832Z,16.58
2023-05-18T10:11:26.386Z,16.78
2023-05-18T10:13:33.427Z,16.99
2023-05-18T10:15:39.728Z,17.00
2023-05-18T10:17:45.352Z,16.90
2023-05-18T10:19:56.287Z,16.75
2023-05-18T10:22:01.870Z,16.64
2023-05-18T10:24:10.844Z,16.54
2023-05-18T10:26:23.464Z,16.49
2023-05-18T10:28:58.950Z,16.52
2023-05-18T10:31:12.403Z,16.72
2023-05-18T10:33:55.321Z,16.85
2023-05-18T10:36:20.155Z,17.09
2023-05-18T10:38:27.399Z,17.22
2023-05-18T10:40:41.100Z,17.20
2023-05-18T10:42:48.265Z,17.11
2023-05-18T10:44:55.679Z,17.08
2023-05-18T10:47:04.434Z,17.06
2023-05-18T10:49:20.050Z,17.07
2023-05-18T10:51:26.355Z,17.15
2023-05-18T10:53:33.060Z,17.38
2023-05-18T10:55:37.977Z,17.67
2023-05-18T10:57:47.138Z,17.85
2023-05-18T10:59:51.421Z,17.88
2023-05-18T11:04:47.328Z,18.05
2023-05-18T11:07:27.322Z,18.16
2023-05-18T11:09:39.746Z,18.29
2023-05-18T11:12:03.059Z,18.23
2023-05-18T11:14:09.149Z,18.12
2023-05-18T11:16:17.644Z,18.08
2023-05-18T11:18:22.416Z,18.16
2023-05-18T11:20:35.804Z,18.19
2023-05-18T11:22:45.430Z,18.17
2023-05-18T11:24:50.194Z,18.07
2023-05-18T11:26:57.184Z,17.98
2023-05-18T11:29:01.766Z,17.91
2023-05-18T11:31:06.804Z,17.92
2023-05-18T11:33:12.598Z,17.90
2023-05-18T11:35:25.492Z,17.96
2023-05-18T11:37:53.112Z,18.10
2023-05-18T11:40:00.973Z,18.17
2023-05-18T11:42:10.271Z,18.08
2023-05-18T11:44:26.174Z,17.99
2023-05-18T11:46:31.052Z,18.03
2023-05-18T11:48:35.346Z,18.19
2023-05-18T11:50:48.123Z,18.29
2023-05-18T11:52:55.104Z,18.41
2023-05-18T11:55:00.925Z,18.46
2023-05-18T11:57:08.717Z,18.37
2023-05-18T11:59:16.994Z,18.08
2023-05-18T12:01:24.199Z,17.87
2023-05-18T12:03:30.106Z,17.76
2023-05-18T12:05:36.463Z,17.68
2023-05-18T12:07:42.736Z,17.69
2023-05-18T12:09:49.788Z,17.69
2023-05-18T12:11:54.708Z,17.79
2023-05-18T12:14:01.675Z,17.91
2023-05-18T12:16:06.879Z,17.97
2023-05-18T12:18:12.949Z,18.06
2023-05-18T12:20:20.659Z,18.12
2023-05-18T12:22:28.578Z,18.17
2023-05-18T12:24:34.131Z,18.14
2023-05-18T12:26:43.342Z,18.19
2023-05-18T12:28:48.701Z,18.24
2023-05-18T12:30:59.905Z,18.26
2023-05-18T12:33:08.108Z,18.33
2023-05-18T12:35:13.379Z,18.48
2023-05-18T12:37:18.456Z,18.60
2023-05-18T12:39:23.038Z,18.61
2023-05-18T12:41:30.064Z,18.61
2023-05-18T12:43:37.706Z,18.58
2023-05-18T12:45:42.250Z,18.50
2023-05-18T12:47:46.246Z,18.38
2023-05-18T12:49:51.777Z,18.18
2023-05-18T12:51:57.066Z,18.15
2023-05-18T12:54:02.573Z,18.19
2023-05-18T12:56:10.402Z,18.27
2023-05-18T12:58:16.585Z,18.20
2023-05-18T13:00:24.638Z,18.10
2023-05-18T13:02:31.853Z,18.06
2023-05-18T13:04:37.481Z,18.02
2023-05-18T13:06:42.013Z,17.94
2023-05-18T13:08:46.430Z,17.86
2023-05-18T13:11:01.224Z,17.79
2023-05-18T13:13:05.723Z,17.76
2023-05-18T13:15:15.110Z,17.78
2023-05-18T13:17:25.019Z,17.85
2023-05-18T13:19:29.036Z,17.93
2023-05-18T13:21:34.819Z,18.02
2023-05-18T13:23:39.490Z,18.04
2023-05-18T13:25:44.353Z,18.05
2023-05-18T13:27:49.827Z,18.07
2023-05-18T13:29:53.934Z,18.09
2023-05-18T13:31:58.276Z,18.10
2023-05-18T13:34:04.821Z,18.18
2023-05-18T13:36:09.309Z,18.26
2023-05-18T13:38:15.112Z,18.26
2023-05-18T13:40:20.283Z,18.16
2023-05-18T13:42:24.832Z,18.12
2023-05-18T13:44:29.190Z,18.04
2023-05-18T13:46:39.309Z,18.01
2023-05-18T13:48:46.712Z,18.03
2023-05-18T13:50:52.764Z,18.03
2023-05-18T13:52:57.649Z,18.05
2023-05-18T13:55:02.261Z,17.99
2023-05-18T13:57:08.529Z,18.00
2023-05-18T13:59:12.526Z,17.98
2023-05-18T14:01:19.164Z,18.03
2023-05-18T14:03:24.578Z,18.06
2023-05-18T14:05:28.751Z,18.13
2023-05-18T14:07:34.733Z,18.19
2023-05-18T14:09:39.442Z,18.27
2023-05-18T14:11:44.464Z,18.34
2023-05-18T14:13:48.750Z,18.35
2023-05-18T14:15:53.565Z,18.39
2023-05-18T14:17:57.767Z,18.42
2023-05-18T14:20:03.329Z,18.48
2023-05-18T14:22:08.943Z,18.44
2023-05-18T14:24:15.728Z,18.43
2023-05-18T14:26:20.350Z,18.44
2023-05-18T14:28:25.544Z,18.45
2023-05-18T14:30:30.012Z,18.44
2023-05-18T14:32:34.768Z,18.36
2023-05-18T14:34:39.835Z,18.32
2023-05-18T14:36:44.486Z,18.32
2023-05-18T14:38:49.198Z,18.29
2023-05-18T14:40:55.008Z,18.24
2023-05-18T14:43:00.298Z,18.21
2023-05-18T14:45:05.129Z,18.14
2023-05-18T14:47:10.916Z,18.13
2023-05-18T14:49:17.980Z,18.17
2023-05-18T14:51:24.185Z,18.19
2023-05-18T14:53:27.864Z,18.27
2023-05-18T14:55:32.224Z,18.30
2023-05-18T14:57:38.224Z,18.31
2023-05-18T14:59:43.743Z,18.33
2023-05-18T15:01:49.128Z,18.36
2023-05-18T15:03:54.630Z,18.38
2023-05-18T15:06:00.589Z,18.41
2023-05-18T15:08:05.952Z,18.43
2023-05-18T15:10:17.597Z,18.39
2023-05-18T15:12:23.441Z,18.34
2023-05-18T15:14:29.245Z,18.31
2023-05-18T15:16:33.513Z,18.22
2023-05-18T15:18:38.908Z,18.17
2023-05-18T15:20:45.499Z,18.14
2023-05-18T15:22:51.493Z,18.07
2023-05-18T15:24:56.659Z,17.98
2023-05-18T15:27:04.172Z,17.87
2023-05-18T15:29:10.188Z,17.85
2023-05-18T15:31:18.644Z,17.83
2023-05-18T15:33:28.115Z,17.86
2023-05-18T15:35:40.835Z,17.89
2023-05-18T15:37:48.758Z,17.93
2023-05-18T15:39:53.791Z,17.92
2023-05-18T15:41:58.249Z,17.90
2023-05-18T15:44:02.659Z,17.90
2023-05-18T15:46:07.075Z,17.88
2023-05-18T15:48:13.101Z,17.90
2023-05-18T15:50:18.145Z,17.91
2023-05-18T15:52:23.328Z,17.95
2023-05-18T15:54:27.937Z,17.92
2023-05-18T15:56:33.247Z,17.88
2023-05-18T15:58:38.425Z,17.83
2023-05-18T16:00:44.667Z,17.80
2023-05-18T16:02:49.811Z,17.77
2023-05-18T16:04:56.693Z,17.74
2023-05-18T16:07:03.034Z,17.74
2023-05-18T16:09:07.993Z,17.64
2023-05-18T16:11:13.023Z,17.54
2023-05-18T16:13:17.644Z,17.49
2023-05-18T16:15:24.651Z,17.50
2023-05-18T16:17:30.663Z,17.53
2023-05-18T16:19:35.986Z,17.51
2023-05-18T16:21:43.092Z,17.52
2023-05-18T16:23:49.974Z,17.53
2023-05-18T16:25:55.099Z,17.51
2023-05-18T16:27:59.326Z,17.50
2023-05-18T16:30:03.616Z,17.49
2023-05-18T16:32:09.163Z,17.46
2023-05-18T16:34:13.386Z,17.40
2023-05-18T16:36:17.356Z,17.35
2023-05-18T16:38:23.016Z,17.31
2023-05-18T16:40:27.153Z,17.28
2023-05-18T16:42:31.736Z,17.25
2023-05-18T16:44:37.367Z,17.25
2023-05-18T16:46:41.410Z,17.27
2023-05-18T16:48:46.120Z,17.25
2023-05-18T16:50:50.583Z,17.26
2023-05-18T16:52:54.806Z,17.28
2023-05-18T16:55:00.986Z,17.23
2023-05-18T16:57:05.767Z,17.21
2023-05-18T16:59:10.058Z,17.19
2023-05-18T17:01:26.533Z,17.16
2023-05-18T17:03:34.473Z,17.15
2023-05-18T17:05:39.587Z,17.13
2023-05-18T17:07:44.329Z,17.09
2023-05-18T17:09:49.065Z,17.07
2023-05-18T17:11:55.376Z,17.08
2023-05-18T17:14:00.346Z,17.09
2023-05-18T17:16:06.957Z,17.12
2023-05-18T17:18:11.621Z,17.11
2023-05-18T17:20:16.036Z,17.11
2023-05-18T17:22:21.011Z,17.11
2023-05-18T17:24:25.632Z,17.17
2023-05-18T17:26:33.633Z,17.22
2023-05-18T17:28:39.864Z,17.31
2023-05-18T17:30:45.375Z,17.38
2023-05-18T17:32:51.393Z,17.43
2023-05-18T17:34:56.233Z,17.44
2023-05-18T17:37:00.672Z,17.40
2023-05-18T17:39:05.841Z,17.37
2023-05-18T17:41:10.350Z,17.38
2023-05-18T17:43:15.725Z,17.38
2023-05-18T17:45:23.048Z,17.39
2023-05-18T17:47:29.315Z,17.38
2023-05-18T17:49:36.919Z,17.35
2023-05-18T17:51:42.783Z,17.35
2023-05-18T17:53:50.820Z,17.37
2023-05-18T17:55:55.367Z,17.37
2023-05-18T17:58:02.926Z,17.33
2023-05-18T18:00:09.319Z,17.31
2023-05-18T18:02:17.008Z,17.27
2023-05-18T18:04:23.362Z,17.25
2023-05-18T18:06:29.054Z,17.22
2023-05-18T18:08:34.266Z,17.22
2023-05-18T18:10:39.603Z,17.16
2023-05-18T18:12:44.238Z,17.11
2023-05-18T18:14:48.823Z,17.08
2023-05-18T18:16:54.125Z,17.06
2023-05-18T18:19:00.134Z,17.03
2023-05-18T18:21:04.802Z,16.98
2023-05-18T18:23:09.189Z,16.91
2023-05-18T18:25:13.499Z,16.87
2023-05-18T18:27:19.782Z,16.84
2023-05-18T18:29:24.215Z,16.83
2023-05-18T18:31:29.001Z,16.80
2023-05-18T18:33:35.199Z,16.78
2023-05-18T18:35:43.176Z,16.75
2023-05-18T18:37:48.175Z,16.72
2023-05-18T18:39:53.543Z,16.70
2023-05-18T18:41:57.526Z,16.66
2023-05-18T18:44:03.564Z,16.62
2023-05-18T18:46:08.756Z,16.55
2023-05-18T18:48:13.744Z,16.48
2023-05-18T18:50:18.196Z,16.42
2023-05-18T18:52:23.574Z,16.35
2023-05-18T18:54:29.024Z,16.32
2023-05-18T18:56:37.411Z,16.26
2023-05-18T18:58:41.929Z,16.21
2023-05-18T19:00:46.450Z,16.16
2023-05-18T19:02:51.657Z,16.11
2023-05-18T19:04:55.925Z,16.10
2023-05-18T19:07:02.051Z,16.06
2023-05-18T19:09:07.645Z,16.03
2023-05-18T19:11:12.148Z,16.01
2023-05-18T19:13:16.440Z,16.00
2023-05-18T19:15:21.722Z,16.00
2023-05-18T19:17:26.929Z,16.00
2023-05-18T19:19:32.876Z,15.99
2023-05-18T19:21:37.773Z,15.95
2023-05-18T19:23:42.698Z,15.94
2023-05-18T19:25:49.780Z,15.92
2023-05-18T19:27:54.606Z,15.92
2023-05-18T19:30:02.969Z,15.94
2023-05-18T19:32:08.332Z,15.96
2023-05-18T19:34:12.154Z,15.92
2023-05-18T19:36:17.011Z,15.88
2023-05-18T19:38:21.625Z,15.83
2023-05-18T19:40:27.713Z,15.79
2023-05-18T19:42:33.209Z,15.78
2023-05-18T19:44:37.607Z,15.79
2023-05-18T19:46:42.264Z,15.73
2023-05-18T19:48:49.673Z,15.71
2023-05-18T19:50:53.871Z,15.71
2023-05-18T19:52:58.083Z,15.69
2023-05-18T19:55:02.684Z,15.67
2023-05-18T19:57:07.722Z,15.61
2023-05-18T19:59:14.056Z,15.59
2023-05-18T20:01:19.122Z,15.60
2023-05-18T20:03:23.382Z,15.59
2023-05-18T20:05:28.050Z,15.60
2023-05-18T20:07:35.245Z,15.60
2023-05-18T20:09:41.894Z,15.61
2023-05-18T20:11:47.089Z,15.59
2023-05-18T20:13:51.988Z,15.59
2023-05-18T20:15:57.410Z,15.59
2023-05-18T20:18:05.188Z,15.57
2023-05-18T20:20:14.961Z,15.53
2023-05-18T20:22:19.357Z,15.50
2023-05-18T20:24:26.270Z,15.45
2023-05-18T20:26:31.993Z,15.40
2023-05-18T20:28:40.154Z,15.35
2023-05-18T20:30:48.164Z,15.33
2023-05-18T20:32:54.772Z,15.29
2023-05-18T20:35:00.597Z,15.25
2023-05-18T20:37:05.933Z,15.19
2023-05-18T20:39:10.228Z,15.17
2023-05-18T20:41:17.987Z,15.12
2023-05-18T20:43:22.203Z,15.11
2023-05-18T20:45:27.307Z,15.10
2023-05-18T20:47:38.474Z,15.10
2023-05-18T20:49:52.982Z,15.08
2023-05-18T20:51:57.843Z,15.05
2023-05-18T20:54:02.079Z,15.02
2023-05-18T20:56:07.576Z,15.04
2023-05-18T20:58:12.087Z,15.01
2023-05-18T21:00:17.782Z,15.00
2023-05-18T21:02:22.742Z,14.94
2023-05-18T21:04:28.530Z,14.92
2023-05-18T21:06:34.596Z,14.90
2023-05-18T21:08:38.559Z,14.88
2023-05-18T21:10:42.435Z,14.88
2023-05-18T21:12:47.448Z,14.87
2023-05-18T21:14:51.181Z,14.85
2023-05-18T21:16:55.696Z,14.82
2023-05-18T21:18:59.978Z,14.80
2023-05-18T21:21:06.259Z,14.76
2023-05-18T21:23:11.922Z,14.72
2023-05-18T21:25:18.115Z,14.72
2023-05-18T21:27:22.577Z,14.69
2023-05-18T21:29:28.621Z,14.68
2023-05-18T21:31:32.758Z,14.68
2023-05-18T21:33:36.924Z,14.68
2023-05-18T21:35:40.991Z,14.68
2023-05-18T21:37:44.865Z,14.66
2023-05-18T21:39:50.236Z,14.66
2023-05-18T21:41:54.164Z,14.67
2023-05-18T21:43:58.323Z,14.68
2023-05-18T21:46:02.818Z,14.68
2023-05-18T21:48:07.638Z,14.69
2023-05-18T21:50:12.475Z,14.71
2023-05-18T21:52:16.627Z,14.72
2023-05-18T21:54:20.889Z,14.72
2023-05-18T21:56:26.525Z,14.74
2023-05-18T21:58:30.383Z,14.75
2023-05-18T22:00:35.628Z,14.76
2023-05-18T22:02:39.598Z,14.77
2023-05-18T22:04:43.569Z,14.77
2023-05-18T22:06:47.723Z,14.78
2023-05-18T22:08:53.205Z,14.78
2023-05-18T22:10:57.242Z,14.79
2023-05-18T22:13:02.801Z,14.78
2023-05-18T22:15:07.582Z,14.77
2023-05-18T22:17:11.226Z,14.76
2023-05-18T22:19:15.241Z,14.76
2023-05-18T22:21:18.767Z,14.75
2023-05-18T22:23:23.000Z,14.72
2023-05-18T22:25:26.960Z,14.72
2023-05-18T22:27:31.101Z,14.71
2023-05-18T22:29:36.402Z,14.71
2023-05-18T22:31:40.105Z,14.70
2023-05-18T22:33:43.765Z,14.71
2023-05-18T22:35:48.376Z,14.70
2023-05-18T22:37:52.065Z,14.69
2023-05-18T22:39:55.769Z,14.69
2023-05-18T22:41:59.519Z,14.69
2023-05-18T22:44:03.168Z,14.65
2023-05-18T22:46:08.612Z,14.64
2023-05-18T22:48:12.443Z,14.62
2023-05-18T22:50:16.186Z,14.63
2023-05-18T22:52:19.903Z,14.62
2023-05-18T22:54:23.679Z,14.58
2023-05-18T22:56:27.776Z,14.56
2023-05-18T22:58:31.589Z,14.52
2023-05-18T23:00:35.251Z,14.50
2023-05-18T23:02:40.912Z,14.48
2023-05-18T23:04:44.572Z,14.47
2023-05-18T23:06:50.987Z,14.47
2023-05-18T23:08:55.451Z,14.45
2023-05-18T23:10:59.361Z,14.44
2023-05-18T23:13:03.451Z,14.45
2023-05-18T23:15:08.564Z,14.44
2023-05-18T23:17:12.564Z,14.44
2023-05-18T23:19:18.650Z,14.43
2023-05-18T23:21:22.974Z,14.43
2023-05-18T23:23:27.233Z,14.42
2023-05-18T23:25:31.119Z,14.41
2023-05-18T23:28:29.060Z,14.37
2023-05-18T23:30:51.448Z,14.34
2023-05-18T23:32:56.735Z,14.32
2023-05-18T23:35:04.572Z,14.27
2023-05-18T23:37:10.761Z,14.26
2023-05-18T23:39:15.224Z,14.21
2023-05-18T23:41:19.536Z,14.18
2023-05-18T23:43:23.720Z,14.18
2023-05-18T23:45:27.986Z,14.16
2023-05-18T23:47:32.189Z,14.17
2023-05-18T23:49:37.029Z,14.18
2023-05-18T23:51:43.950Z,14.19
2023-05-18T23:53:48.091Z,14.19
2023-05-18T23:55:52.250Z,14.18
2023-05-18T23:57:57.591Z,14.19
